createdAt,value
2023-01-15T00:00:55.855Z,10.39428711
2023-01-15T00:01:56.815Z,10.43457031
2023-01-15T00:02:57.822Z,10.43457031
2023-01-15T00:03:58.638Z,10.43457031
2023-01-15T00:04:59.432Z,10.43457031
2023-01-15T00:06:00.908Z,10.42449951
2023-01-15T00:07:01.693Z,10.39428711
2023-01-15T00:08:02.484Z,10.38421631
2023-01-15T00:09:03.290Z,10.36407471
2023-01-15T00:10:05.052Z,10.36407471
2023-01-15T00:11:05.767Z,10.34393311
2023-01-15T00:12:06.598Z,10.3237915
2023-01-15T00:13:07.408Z,10.2935791
2023-01-15T00:14:08.196Z,10.2835083
2023-01-15T00:15:09.087Z,10.2532959
2023-01-15T00:16:10.499Z,10.2230835
2023-01-15T00:17:11.490Z,10.20294189
2023-01-15T00:18:12.307Z,10.18280029
2023-01-15T00:19:13.078Z,10.16265869
2023-01-15T00:20:13.842Z,10.14251709
2023-01-15T00:21:14.613Z,10.13244629
2023-01-15T00:22:15.359Z,10.11230469
2023-01-15T00:23:16.173Z,10.09216309
2023-01-15T00:24:16.923Z,10.10223389
2023-01-15T00:25:17.800Z,10.09216309
2023-01-15T00:26:19.400Z,10.07202148
2023-01-15T00:27:20.183Z,10.06195068
2023-01-15T00:28:21.035Z,10.04180908
2023-01-15T00:29:21.820Z,10.06195068
2023-01-15T00:30:22.678Z,10.04180908
2023-01-15T00:31:23.471Z,10.01159668
2023-01-15T00:32:24.686Z,9.991455078
2023-01-15T00:33:55.890Z,9.961242676
2023-01-15T00:34:56.889Z,9.920959473
2023-01-15T00:35:57.673Z,9.89074707
2023-01-15T00:36:59.316Z,9.89074707
2023-01-15T00:38:00.162Z,9.860534668
2023-01-15T00:39:00.904Z,9.830322266
2023-01-15T00:40:01.730Z,9.830322266
2023-01-15T00:41:02.565Z,9.800109863
2023-01-15T00:42:03.378Z,9.779968262
2023-01-15T00:43:04.281Z,9.729614258
2023-01-15T00:44:05.108Z,9.739685059
2023-01-15T00:45:06.394Z,9.739685059
2023-01-15T00:46:07.234Z,9.729614258
2023-01-15T00:47:08.817Z,9.709472656
2023-01-15T00:48:09.651Z,9.679260254
2023-01-15T00:49:10.476Z,9.649047852
2023-01-15T00:50:11.989Z,9.62890625
2023-01-15T00:51:12.869Z,9.618835449
2023-01-15T00:52:13.623Z,9.618835449
2023-01-15T00:53:14.420Z,9.598693848
2023-01-15T00:54:15.424Z,9.598693848
2023-01-15T00:55:16.907Z,9.588623047
2023-01-15T00:56:18.461Z,9.578552246
2023-01-15T00:57:19.237Z,9.588623047
2023-01-15T00:58:20.050Z,9.588623047
2023-01-15T00:59:20.853Z,9.578552246
2023-01-15T01:00:21.657Z,9.578552246
2023-01-15T01:01:22.620Z,9.548339844
2023-01-15T01:02:23.322Z,9.518127441
2023-01-15T01:03:24.500Z,9.447631836
2023-01-15T01:04:55.712Z,9.447631836
2023-01-15T01:05:56.476Z,9.447631836
2023-01-15T01:06:57.902Z,9.447631836
2023-01-15T01:07:58.705Z,9.417419434
2023-01-15T01:08:59.551Z,9.37713623
2023-01-15T01:10:00.381Z,9.346923828
2023-01-15T01:11:01.890Z,9.296569824
2023-01-15T01:12:02.732Z,9.296569824
2023-01-15T01:13:03.540Z,9.266357422
2023-01-15T01:14:04.469Z,9.296569824
2023-01-15T01:15:05.632Z,9.266357422
2023-01-15T01:16:06.484Z,9.256286621
2023-01-15T01:17:07.830Z,9.226074219
2023-01-15T01:18:08.605Z,9.185791016
2023-01-15T01:19:09.399Z,9.155578613
2023-01-15T01:20:10.289Z,9.125366211
2023-01-15T01:21:11.098Z,9.125366211
2023-01-15T01:22:11.919Z,9.11529541
2023-01-15T01:23:12.716Z,9.11529541
2023-01-15T01:24:13.590Z,9.11529541
2023-01-15T01:25:14.327Z,9.125366211
2023-01-15T01:26:15.098Z,9.125366211
2023-01-15T01:27:16.846Z,9.075012207
2023-01-15T01:28:17.635Z,9.075012207
2023-01-15T01:29:18.487Z,9.095153809
2023-01-15T01:30:19.386Z,9.075012207
2023-01-15T01:31:20.313Z,9.095153809
2023-01-15T01:32:21.288Z,9.095153809
2023-01-15T01:33:22.070Z,9.095153809
2023-01-15T01:34:22.831Z,9.11529541
2023-01-15T01:35:24.155Z,9.044799805
2023-01-15T01:36:56.435Z,9.044799805
2023-01-15T01:37:57.546Z,9.044799805
2023-01-15T01:38:58.360Z,9.034729004
2023-01-15T01:39:59.143Z,9.014587402
2023-01-15T01:41:00.095Z,9.044799805
2023-01-15T01:42:01.024Z,9.044799805
2023-01-15T01:43:02.114Z,9.044799805
2023-01-15T01:44:02.829Z,9.004516602
2023-01-15T01:45:03.658Z,9.004516602
2023-01-15T01:46:04.528Z,9.034729004
2023-01-15T01:47:05.919Z,9.044799805
2023-01-15T01:48:06.930Z,9.075012207
2023-01-15T01:49:07.851Z,9.095153809
2023-01-15T01:50:08.653Z,9.095153809
2023-01-15T01:51:09.446Z,9.075012207
2023-01-15T01:52:10.351Z,9.044799805
2023-01-15T01:53:11.297Z,9.064941406
2023-01-15T01:54:12.203Z,9.044799805
2023-01-15T01:55:13.086Z,9.064941406
2023-01-15T01:56:13.968Z,9.095153809
2023-01-15T01:57:15.491Z,9.11529541
2023-01-15T01:58:16.393Z,9.11529541
2023-01-15T01:59:17.286Z,9.075012207
2023-01-15T02:00:18.156Z,9.044799805
2023-01-15T02:01:19.074Z,9.034729004
2023-01-15T02:02:19.805Z,9.034729004
2023-01-15T02:03:20.716Z,9.044799805
2023-01-15T02:04:22.451Z,9.044799805
2023-01-15T02:05:23.866Z,9.004516602
2023-01-15T02:06:55.913Z,9.014587402
2023-01-15T02:07:56.990Z,9.004516602
2023-01-15T02:08:57.997Z,9.034729004
2023-01-15T02:09:58.878Z,9.014587402
2023-01-15T02:10:59.655Z,9.014587402
2023-01-15T02:12:00.470Z,9.014587402
2023-01-15T02:13:01.277Z,9.014587402
2023-01-15T02:14:02.232Z,9.034729004
2023-01-15T02:15:03.152Z,9.044799805
2023-01-15T02:16:04.177Z,9.044799805
2023-01-15T02:17:05.754Z,9.034729004
2023-01-15T02:18:06.512Z,9.044799805
2023-01-15T02:19:08.410Z,9.014587402
2023-01-15T02:20:09.498Z,9.004516602
2023-01-15T02:21:10.391Z,8.974304199
2023-01-15T02:22:11.193Z,8.974304199
2023-01-15T02:23:11.932Z,8.964233398
2023-01-15T02:24:12.781Z,8.964233398
2023-01-15T02:25:13.681Z,8.974304199
2023-01-15T02:26:15.514Z,8.984375
2023-01-15T02:27:16.474Z,9.004516602
2023-01-15T02:28:17.252Z,8.974304199
2023-01-15T02:29:18.926Z,8.964233398
2023-01-15T02:30:19.790Z,8.974304199
2023-01-15T02:31:20.758Z,8.974304199
2023-01-15T02:32:21.652Z,8.944091797
2023-01-15T02:33:22.459Z,8.944091797
2023-01-15T02:34:23.741Z,8.934020996
2023-01-15T02:35:55.066Z,8.863525391
2023-01-15T02:36:56.945Z,8.85345459
2023-01-15T02:37:57.882Z,8.85345459
2023-01-15T02:38:58.697Z,8.863525391
2023-01-15T02:39:59.494Z,8.85345459
2023-01-15T02:41:00.890Z,8.833312988
2023-01-15T02:42:01.810Z,8.823242188
2023-01-15T02:43:02.704Z,8.803100586
2023-01-15T02:44:03.533Z,8.803100586
2023-01-15T02:45:04.400Z,8.793029785
2023-01-15T02:46:05.256Z,8.803100586
2023-01-15T02:47:06.939Z,8.793029785
2023-01-15T02:48:07.806Z,8.803100586
2023-01-15T02:49:08.642Z,8.762817383
2023-01-15T02:50:09.434Z,8.73260498
2023-01-15T02:51:10.167Z,8.712463379
2023-01-15T02:52:11.030Z,8.73260498
2023-01-15T02:53:11.917Z,8.73260498
2023-01-15T02:54:12.783Z,8.712463379
2023-01-15T02:55:13.549Z,8.672180176
2023-01-15T02:56:14.312Z,8.672180176
2023-01-15T02:57:15.935Z,8.652038574
2023-01-15T02:58:16.863Z,8.652038574
2023-01-15T02:59:17.828Z,8.652038574
2023-01-15T03:00:18.622Z,8.702392578
2023-01-15T03:01:19.485Z,8.702392578
2023-01-15T03:02:20.179Z,8.702392578
2023-01-15T03:03:21.897Z,8.682250977
2023-01-15T03:04:22.801Z,8.702392578
2023-01-15T03:05:54.078Z,8.712463379
2023-01-15T03:06:54.946Z,8.712463379
2023-01-15T03:07:56.322Z,8.73260498
2023-01-15T03:08:57.525Z,8.752746582
2023-01-15T03:09:58.521Z,8.752746582
2023-01-15T03:10:59.359Z,8.73260498
2023-01-15T03:12:00.208Z,8.73260498
2023-01-15T03:13:01.109Z,8.73260498
2023-01-15T03:14:02.039Z,8.712463379
2023-01-15T03:15:02.930Z,8.73260498
2023-01-15T03:16:03.819Z,8.752746582
2023-01-15T03:17:05.403Z,8.73260498
2023-01-15T03:18:06.197Z,8.752746582
2023-01-15T03:19:07.059Z,8.762817383
2023-01-15T03:20:07.899Z,8.752746582
2023-01-15T03:21:09.411Z,8.752746582
2023-01-15T03:22:10.135Z,8.762817383
2023-01-15T03:23:10.977Z,8.752746582
2023-01-15T03:24:11.911Z,8.752746582
2023-01-15T03:25:12.816Z,8.73260498
2023-01-15T03:26:13.707Z,8.712463379
2023-01-15T03:27:15.420Z,8.73260498
2023-01-15T03:28:16.207Z,8.73260498
2023-01-15T03:29:17.041Z,8.712463379
2023-01-15T03:30:17.923Z,8.752746582
2023-01-15T03:31:18.879Z,8.73260498
2023-01-15T03:32:19.718Z,8.73260498
2023-01-15T03:33:21.347Z,8.752746582
2023-01-15T03:34:22.094Z,8.752746582
2023-01-15T03:35:53.668Z,8.73260498
2023-01-15T03:36:54.602Z,8.73260498
2023-01-15T03:37:56.375Z,8.73260498
2023-01-15T03:38:57.517Z,8.752746582
2023-01-15T03:39:58.305Z,8.752746582
2023-01-15T03:40:59.918Z,8.782958984
2023-01-15T03:42:01.051Z,8.803100586
2023-01-15T03:43:01.689Z,8.823242188
2023-01-15T03:44:02.506Z,8.833312988
2023-01-15T03:45:03.308Z,8.833312988
2023-01-15T03:46:04.102Z,8.85345459
2023-01-15T03:47:05.160Z,8.883666992
2023-01-15T03:48:06.948Z,8.893737793
2023-01-15T03:49:07.867Z,8.934020996
2023-01-15T03:50:08.679Z,8.944091797
2023-01-15T03:51:09.452Z,8.964233398
2023-01-15T03:52:10.349Z,8.964233398
2023-01-15T03:53:11.234Z,8.984375
2023-01-15T03:54:12.181Z,9.004516602
2023-01-15T03:55:12.915Z,9.014587402
2023-01-15T03:56:13.702Z,9.034729004
2023-01-15T03:57:14.680Z,9.034729004
2023-01-15T03:58:16.382Z,9.075012207
2023-01-15T03:59:17.277Z,9.095153809
2023-01-15T04:00:18.088Z,9.11529541
2023-01-15T04:01:18.974Z,9.145507813
2023-01-15T04:02:19.707Z,9.155578613
2023-01-15T04:03:20.584Z,9.185791016
2023-01-15T04:04:21.540Z,9.195861816
2023-01-15T04:05:22.909Z,9.23614502
2023-01-15T04:06:54.206Z,9.316711426
2023-01-15T04:07:55.884Z,9.37713623
2023-01-15T04:08:56.847Z,9.407348633
2023-01-15T04:09:57.881Z,9.437561035
2023-01-15T04:10:59.444Z,9.487915039
2023-01-15T04:12:00.297Z,9.518127441
2023-01-15T04:13:01.225Z,9.528198242
2023-01-15T04:14:02.172Z,9.548339844
2023-01-15T04:15:03.160Z,9.558410645
2023-01-15T04:16:04.235Z,9.598693848
2023-01-15T04:17:04.994Z,9.618835449
2023-01-15T04:18:06.406Z,9.669189453
2023-01-15T04:19:07.341Z,9.679260254
2023-01-15T04:20:08.311Z,9.699401855
2023-01-15T04:21:09.263Z,9.679260254
2023-01-15T04:22:10.989Z,9.699401855
2023-01-15T04:23:11.895Z,9.729614258
2023-01-15T04:24:12.778Z,9.739685059
2023-01-15T04:25:13.708Z,9.739685059
2023-01-15T04:26:14.814Z,9.749755859
2023-01-15T04:27:15.724Z,9.749755859
2023-01-15T04:28:17.331Z,9.769897461
2023-01-15T04:29:18.138Z,9.779968262
2023-01-15T04:30:19.018Z,9.800109863
2023-01-15T04:31:20.091Z,9.800109863
2023-01-15T04:32:20.889Z,9.800109863
2023-01-15T04:33:21.908Z,9.800109863
2023-01-15T04:34:53.201Z,9.810180664
2023-01-15T04:35:54.054Z,9.860534668
2023-01-15T04:36:55.075Z,9.88067627
2023-01-15T04:37:56.987Z,9.910888672
2023-01-15T04:38:57.962Z,9.920959473
2023-01-15T04:39:58.765Z,9.931030273
2023-01-15T04:40:59.614Z,9.931030273
2023-01-15T04:42:00.579Z,9.920959473
2023-01-15T04:43:02.528Z,9.920959473
2023-01-15T04:44:03.587Z,9.920959473
2023-01-15T04:45:04.414Z,9.910888672
2023-01-15T04:46:05.299Z,9.910888672
2023-01-15T04:47:06.090Z,9.910888672
2023-01-15T04:48:07.955Z,9.920959473
2023-01-15T04:49:09.060Z,9.920959473
2023-01-15T04:50:09.911Z,9.920959473
2023-01-15T04:51:11.325Z,9.931030273
2023-01-15T04:52:12.315Z,9.951171875
2023-01-15T04:53:13.253Z,9.931030273
2023-01-15T04:54:14.247Z,9.951171875
2023-01-15T04:55:15.147Z,9.951171875
2023-01-15T04:56:15.987Z,9.961242676
2023-01-15T04:57:16.818Z,9.981384277
2023-01-15T04:58:18.399Z,10.01159668
2023-01-15T04:59:19.368Z,10.02166748
2023-01-15T05:00:20.313Z,10.02166748
2023-01-15T05:01:21.250Z,10.02166748
2023-01-15T05:02:52.806Z,10.04180908
2023-01-15T05:03:53.654Z,10.06195068
2023-01-15T05:04:54.559Z,10.06195068
2023-01-15T05:05:55.505Z,10.07202148
2023-01-15T05:06:56.435Z,10.10223389
2023-01-15T05:07:57.926Z,10.13244629
2023-01-15T05:08:58.714Z,10.13244629
2023-01-15T05:09:59.715Z,10.14251709
2023-01-15T05:11:00.636Z,10.14251709
2023-01-15T05:12:01.606Z,10.17272949
2023-01-15T05:13:02.415Z,10.17272949
2023-01-15T05:14:03.243Z,10.18280029
2023-01-15T05:15:04.141Z,10.17272949
2023-01-15T05:16:05.069Z,10.18280029
2023-01-15T05:17:05.959Z,10.17272949
2023-01-15T05:18:07.508Z,10.17272949
2023-01-15T05:19:09.388Z,10.2230835
2023-01-15T05:20:09.809Z,10.2532959
2023-01-15T05:21:10.787Z,10.2835083
2023-01-15T05:22:11.702Z,10.3137207
2023-01-15T05:23:12.623Z,10.3237915
2023-01-15T05:24:13.768Z,10.36407471
2023-01-15T05:25:14.810Z,10.38421631
2023-01-15T05:26:15.658Z,10.39428711
2023-01-15T05:27:16.558Z,10.38421631
2023-01-15T05:28:17.997Z,10.39428711
2023-01-15T05:29:18.807Z,10.39428711
2023-01-15T05:30:19.632Z,10.39428711
2023-01-15T05:31:20.646Z,10.38421631
2023-01-15T05:32:21.920Z,10.42449951
2023-01-15T05:33:53.337Z,10.43457031
2023-01-15T05:34:54.081Z,10.44464111
2023-01-15T05:35:54.917Z,10.46478271
2023-01-15T05:36:55.768Z,10.46478271
2023-01-15T05:37:57.723Z,10.49499512
2023-01-15T05:38:58.671Z,10.49499512
2023-01-15T05:40:00.408Z,10.49499512
2023-01-15T05:41:01.200Z,10.49499512
2023-01-15T05:42:02.050Z,10.50506592
2023-01-15T05:43:02.957Z,10.47485352
2023-01-15T05:44:03.782Z,10.51513672
2023-01-15T05:45:05.456Z,10.53527832
2023-01-15T05:46:06.372Z,10.56549072
2023-01-15T05:47:07.094Z,10.57556152
2023-01-15T05:48:09.018Z,10.59570313
2023-01-15T05:49:09.974Z,10.59570313
2023-01-15T05:50:10.881Z,10.57556152
2023-01-15T05:51:11.685Z,10.57556152
2023-01-15T05:52:13.307Z,10.59570313
2023-01-15T05:53:14.181Z,10.59570313
2023-01-15T05:54:15.140Z,10.57556152
2023-01-15T05:55:16.000Z,10.57556152
2023-01-15T05:56:17.176Z,10.56549072
2023-01-15T05:57:18.003Z,10.56549072
2023-01-15T05:58:19.459Z,10.54534912
2023-01-15T05:59:20.430Z,10.51513672
2023-01-15T06:00:21.908Z,10.47485352
2023-01-15T06:01:53.239Z,10.47485352
2023-01-15T06:02:54.118Z,10.46478271
2023-01-15T06:03:54.973Z,10.43457031
2023-01-15T06:04:55.838Z,10.42449951
2023-01-15T06:05:56.745Z,10.38421631
2023-01-15T06:06:57.760Z,10.38421631
2023-01-15T06:08:01.094Z,10.36407471
2023-01-15T06:09:00.363Z,10.34393311
2023-01-15T06:10:01.308Z,10.34393311
2023-01-15T06:11:02.238Z,10.3237915
2023-01-15T06:12:03.205Z,10.3137207
2023-01-15T06:13:04.035Z,10.2835083
2023-01-15T06:14:05.841Z,10.2532959
2023-01-15T06:15:06.706Z,10.2633667
2023-01-15T06:16:07.729Z,10.2432251
2023-01-15T06:17:08.726Z,10.2230835
2023-01-15T06:18:10.463Z,10.2230835
2023-01-15T06:19:11.367Z,10.20294189
2023-01-15T06:20:12.841Z,10.18280029
2023-01-15T06:21:13.832Z,10.18280029
2023-01-15T06:22:14.902Z,10.17272949
2023-01-15T06:23:15.761Z,10.16265869
2023-01-15T06:24:16.635Z,10.13244629
2023-01-15T06:25:17.430Z,10.14251709
2023-01-15T06:26:18.276Z,10.14251709
2023-01-15T06:27:19.213Z,10.13244629
2023-01-15T06:28:20.952Z,10.13244629
2023-01-15T06:29:52.138Z,10.14251709
2023-01-15T06:30:52.933Z,10.14251709
2023-01-15T06:31:53.769Z,10.14251709
2023-01-15T06:32:54.782Z,10.18280029
2023-01-15T06:33:55.611Z,10.18280029
2023-01-15T06:34:56.374Z,10.18280029
2023-01-15T06:35:57.652Z,10.20294189
2023-01-15T06:36:58.463Z,10.18280029
2023-01-15T06:37:59.390Z,10.20294189
2023-01-15T06:39:00.932Z,10.20294189
2023-01-15T06:40:01.757Z,10.20294189
2023-01-15T06:41:02.584Z,10.2230835
2023-01-15T06:42:03.420Z,10.18280029
2023-01-15T06:43:04.404Z,10.20294189
2023-01-15T06:44:05.257Z,10.17272949
2023-01-15T06:45:06.954Z,10.18280029
2023-01-15T06:46:07.805Z,10.18280029
2023-01-15T06:47:08.716Z,10.18280029
2023-01-15T06:48:10.450Z,10.18280029
2023-01-15T06:49:11.434Z,10.17272949
2023-01-15T06:50:12.394Z,10.17272949
2023-01-15T06:51:13.898Z,10.17272949
2023-01-15T06:52:14.694Z,10.18280029
2023-01-15T06:53:15.553Z,10.18280029
2023-01-15T06:54:16.460Z,10.18280029
2023-01-15T06:55:17.400Z,10.18280029
2023-01-15T06:56:18.313Z,10.20294189
2023-01-15T06:57:19.196Z,10.20294189
2023-01-15T06:58:19.977Z,10.18280029
2023-01-15T06:59:51.942Z,10.18280029
2023-01-15T07:00:52.926Z,10.18280029
2023-01-15T07:01:53.973Z,10.14251709
2023-01-15T07:02:54.610Z,10.13244629
2023-01-15T07:03:55.469Z,10.10223389
2023-01-15T07:04:56.371Z,10.10223389
2023-01-15T07:05:57.707Z,10.09216309
2023-01-15T07:06:58.681Z,10.07202148
2023-01-15T07:07:59.649Z,10.07202148
2023-01-15T07:09:01.425Z,10.07202148
2023-01-15T07:10:02.104Z,10.09216309
2023-01-15T07:11:03.051Z,10.09216309
2023-01-15T07:12:04.097Z,10.10223389
2023-01-15T07:13:05.907Z,10.11230469
2023-01-15T07:14:06.758Z,10.11230469
2023-01-15T07:15:07.640Z,10.13244629
2023-01-15T07:16:08.680Z,10.11230469
2023-01-15T07:17:09.579Z,10.13244629
2023-01-15T07:18:10.503Z,10.13244629
2023-01-15T07:19:12.374Z,10.13244629
2023-01-15T07:20:13.175Z,10.13244629
2023-01-15T07:21:14.019Z,10.13244629
2023-01-15T07:22:14.992Z,10.14251709
2023-01-15T07:23:16.877Z,10.16265869
2023-01-15T07:24:16.969Z,10.13244629
2023-01-15T07:25:17.791Z,10.13244629
2023-01-15T07:26:18.631Z,10.11230469
2023-01-15T07:27:19.637Z,10.11230469
2023-01-15T07:28:21.045Z,10.10223389
2023-01-15T07:29:53.362Z,10.10223389
2023-01-15T07:30:54.155Z,10.09216309
2023-01-15T07:31:55.048Z,10.07202148
2023-01-15T07:32:55.989Z,10.07202148
2023-01-15T07:34:27.729Z,10.11230469
2023-01-15T07:35:58.937Z,10.14251709
2023-01-15T07:36:59.756Z,10.18280029
2023-01-15T07:38:00.696Z,10.2633667
2023-01-15T07:39:02.464Z,10.36407471
2023-01-15T07:40:03.462Z,10.42449951
2023-01-15T07:41:04.436Z,10.51513672
2023-01-15T07:42:05.317Z,10.61584473
2023-01-15T07:43:06.278Z,10.79711914
2023-01-15T07:44:07.185Z,10.90789795
2023-01-15T07:45:08.152Z,11.00860596
2023-01-15T07:46:09.066Z,11.05895996
2023-01-15T07:47:09.972Z,11.08917236
2023-01-15T07:48:10.889Z,11.16973877
2023-01-15T07:49:12.472Z,11.26037598
2023-01-15T07:50:13.503Z,11.33087158
2023-01-15T07:51:15.494Z,11.42150879
2023-01-15T07:52:16.378Z,11.45172119
2023-01-15T07:53:17.162Z,11.5322876
2023-01-15T07:54:18.054Z,11.5625
2023-01-15T07:55:18.980Z,11.6229248
2023-01-15T07:56:20.021Z,11.63299561
2023-01-15T07:57:51.320Z,11.63299561
2023-01-15T07:58:52.831Z,11.63299561
2023-01-15T07:59:53.838Z,11.64306641
2023-01-15T08:00:55.546Z,11.66320801
2023-01-15T08:01:56.531Z,11.64306641
2023-01-15T08:02:57.507Z,11.64306641
2023-01-15T08:03:58.578Z,11.64306641
2023-01-15T08:04:59.355Z,11.64306641
2023-01-15T08:06:00.235Z,11.6229248
2023-01-15T08:07:01.337Z,11.6027832
2023-01-15T08:08:02.044Z,11.63299561
2023-01-15T08:09:03.412Z,11.6229248
2023-01-15T08:10:04.217Z,11.6027832
2023-01-15T08:11:05.111Z,11.5927124
2023-01-15T08:12:06.167Z,11.5725708
2023-01-15T08:13:06.860Z,11.5423584
2023-01-15T08:14:07.919Z,11.512146
2023-01-15T08:15:08.725Z,11.49200439
2023-01-15T08:16:09.731Z,11.46179199
2023-01-15T08:17:10.640Z,11.45172119
2023-01-15T08:18:11.495Z,11.44165039
2023-01-15T08:19:12.857Z,11.42150879
2023-01-15T08:20:13.703Z,11.41143799
2023-01-15T08:21:15.391Z,11.38122559
2023-01-15T08:22:16.328Z,11.36108398
2023-01-15T08:23:17.372Z,11.33087158
2023-01-15T08:24:18.221Z,11.31072998
2023-01-15T08:25:19.024Z,11.30065918
2023-01-15T08:26:20.261Z,11.26037598
2023-01-15T08:27:51.702Z,11.24023438
2023-01-15T08:28:52.596Z,11.24023438
2023-01-15T08:29:54.350Z,11.23016357
2023-01-15T08:30:55.241Z,11.19995117
2023-01-15T08:31:56.245Z,11.18988037
2023-01-15T08:32:57.602Z,11.16973877
2023-01-15T08:33:58.562Z,11.12945557
2023-01-15T08:34:59.429Z,11.08917236
2023-01-15T08:36:00.234Z,11.05895996
2023-01-15T08:37:01.075Z,11.02874756
2023-01-15T08:38:02.149Z,10.97839355
2023-01-15T08:39:03.077Z,10.93811035
2023-01-15T08:40:05.045Z,10.83740234
2023-01-15T08:41:05.906Z,10.79711914
2023-01-15T08:42:06.731Z,10.71655273
2023-01-15T08:43:07.690Z,10.64605713
2023-01-15T08:44:08.670Z,10.57556152
2023-01-15T08:45:10.488Z,10.43457031
2023-01-15T08:46:11.412Z,10.39428711
2023-01-15T08:47:12.186Z,10.2935791
2023-01-15T08:48:13.080Z,10.17272949
2023-01-15T08:49:14.987Z,10.07202148
2023-01-15T08:50:16.007Z,9.991455078
2023-01-15T08:51:17.919Z,9.88067627
2023-01-15T08:52:18.724Z,9.779968262
2023-01-15T08:53:20.102Z,9.669189453
2023-01-15T08:54:51.396Z,9.62890625
2023-01-15T08:55:52.358Z,9.588623047
2023-01-15T08:56:53.395Z,9.528198242
2023-01-15T08:57:54.212Z,9.407348633
2023-01-15T08:58:55.048Z,9.316711426
2023-01-15T08:59:56.943Z,9.306640625
2023-01-15T09:00:57.980Z,9.296569824
2023-01-15T09:01:59.114Z,9.23614502
2023-01-15T09:02:59.992Z,9.125366211
2023-01-15T09:04:00.994Z,9.075012207
2023-01-15T09:05:01.792Z,9.014587402
2023-01-15T09:06:02.595Z,8.984375
2023-01-15T09:07:03.533Z,8.833312988
2023-01-15T09:08:04.536Z,8.803100586
2023-01-15T09:09:05.549Z,8.803100586
2023-01-15T09:10:06.818Z,8.793029785
2023-01-15T09:11:07.645Z,8.793029785
2023-01-15T09:12:08.556Z,8.762817383
2023-01-15T09:13:09.484Z,8.752746582
2023-01-15T09:14:58.885Z,8.672180176
2023-01-15T09:15:11.152Z,8.611755371
2023-01-15T09:16:12.558Z,8.60168457
2023-01-15T09:17:13.239Z,8.551330566
2023-01-15T09:18:14.891Z,8.521118164
2023-01-15T09:19:15.817Z,8.400268555
2023-01-15T09:20:17.414Z,8.289489746
2023-01-15T09:21:18.129Z,8.309631348
2023-01-15T09:22:18.980Z,8.249206543
2023-01-15T09:23:50.403Z,8.269348145
2023-01-15T09:24:51.316Z,8.269348145
2023-01-15T09:25:53.074Z,8.239135742
2023-01-15T09:26:53.194Z,8.198852539
2023-01-15T09:27:54.092Z,8.178710938
2023-01-15T09:28:54.992Z,8.138427734
2023-01-15T09:29:56.474Z,8.198852539
2023-01-15T09:30:57.805Z,8.20892334
2023-01-15T09:31:58.478Z,8.218994141
2023-01-15T09:32:59.395Z,8.269348145
2023-01-15T09:34:00.379Z,8.249206543
2023-01-15T09:35:01.290Z,8.239135742
2023-01-15T09:36:02.188Z,8.198852539
2023-01-15T09:37:03.106Z,8.20892334
2023-01-15T09:38:04.094Z,8.20892334
2023-01-15T09:39:05.121Z,8.168640137
2023-01-15T09:40:07.136Z,8.128356934
2023-01-15T09:41:08.029Z,8.168640137
2023-01-15T09:42:08.899Z,8.128356934
2023-01-15T09:43:10.375Z,8.057861328
2023-01-15T09:44:11.324Z,7.997436523
2023-01-15T09:45:12.345Z,7.916870117
2023-01-15T09:46:13.253Z,7.94708252
2023-01-15T09:47:14.009Z,7.94708252
2023-01-15T09:48:17.354Z,7.94708252
2023-01-15T09:49:16.429Z,7.876586914
2023-01-15T09:50:17.380Z,7.836303711
2023-01-15T09:51:19.367Z,7.755737305
2023-01-15T09:52:50.960Z,7.665100098
2023-01-15T09:53:51.882Z,7.634887695
2023-01-15T09:54:52.721Z,7.544250488
2023-01-15T09:55:53.635Z,7.524108887
2023-01-15T09:56:54.672Z,7.524108887
2023-01-15T09:57:55.701Z,7.514038086
2023-01-15T09:58:56.615Z,7.473754883
2023-01-15T09:59:58.491Z,7.483825684
2023-01-15T10:00:59.486Z,7.423400879
2023-01-15T10:02:00.331Z,7.44354248
2023-01-15T10:03:01.385Z,7.44354248
2023-01-15T10:04:02.402Z,7.453613281
2023-01-15T10:05:04.973Z,7.413330078
2023-01-15T10:06:04.347Z,7.413330078
2023-01-15T10:07:05.296Z,7.453613281
2023-01-15T10:08:06.231Z,7.44354248
2023-01-15T10:09:07.318Z,7.473754883
2023-01-15T10:10:08.900Z,7.44354248
2023-01-15T10:11:10.419Z,7.44354248
2023-01-15T10:12:11.281Z,7.453613281
2023-01-15T10:13:12.306Z,7.453613281
2023-01-15T10:14:13.279Z,7.483825684
2023-01-15T10:15:14.238Z,7.503967285
2023-01-15T10:16:15.239Z,7.483825684
2023-01-15T10:17:16.006Z,7.524108887
2023-01-15T10:18:16.950Z,7.503967285
2023-01-15T10:19:18.960Z,7.393188477
2023-01-15T10:20:50.985Z,7.342834473
2023-01-15T10:21:51.912Z,7.373046875
2023-01-15T10:22:52.732Z,7.393188477
2023-01-15T10:23:53.599Z,7.322692871
2023-01-15T10:24:54.573Z,7.262268066
2023-01-15T10:25:56.474Z,7.18170166
2023-01-15T10:26:57.782Z,7.141418457
2023-01-15T10:27:58.489Z,7.141418457
2023-01-15T10:28:59.407Z,7.161560059
2023-01-15T10:30:01.059Z,7.161560059
2023-01-15T10:31:02.052Z,7.121276855
2023-01-15T10:32:03.205Z,7.121276855
2023-01-15T10:33:04.088Z,7.080993652
2023-01-15T10:34:05.082Z,6.940002441
2023-01-15T10:35:07.011Z,6.929931641
2023-01-15T10:36:08.014Z,6.960144043
2023-01-15T10:37:09.000Z,6.960144043
2023-01-15T10:38:10.043Z,7.000427246
2023-01-15T10:39:12.109Z,7.040710449
2023-01-15T10:40:14.039Z,7.070922852
2023-01-15T10:41:15.087Z,7.18170166
2023-01-15T10:42:17.002Z,7.242126465
2023-01-15T10:43:17.791Z,7.272338867
2023-01-15T10:44:49.503Z,7.292480469
2023-01-15T10:45:51.050Z,7.292480469
2023-01-15T10:46:54.375Z,7.332763672
2023-01-15T10:47:52.894Z,7.362976074
2023-01-15T10:48:53.794Z,7.393188477
2023-01-15T10:49:55.424Z,7.413330078
2023-01-15T10:50:56.288Z,7.413330078
2023-01-15T10:51:57.716Z,7.362976074
2023-01-15T10:52:58.704Z,7.362976074
2023-01-15T10:53:59.508Z,7.332763672
2023-01-15T10:55:00.975Z,7.292480469
2023-01-15T10:56:01.937Z,7.211914063
2023-01-15T10:57:03.071Z,7.151489258
2023-01-15T10:58:10.362Z,7.111206055
2023-01-15T10:59:05.906Z,7.05078125
2023-01-15T11:00:07.448Z,6.990356445
2023-01-15T11:01:08.604Z,7.010498047
2023-01-15T11:02:10.003Z,7.05078125
2023-01-15T11:03:11.633Z,7.010498047
2023-01-15T11:04:13.518Z,6.929931641
2023-01-15T11:05:14.399Z,6.909790039
2023-01-15T11:06:15.315Z,6.899719238
2023-01-15T11:07:16.326Z,6.940002441
2023-01-15T11:09:02.288Z,6.869506836
2023-01-15T11:09:49.167Z,6.778869629
2023-01-15T11:10:51.135Z,6.678161621
2023-01-15T11:11:52.015Z,6.627807617
2023-01-15T11:12:53.658Z,6.567382813
2023-01-15T11:13:55.066Z,6.567382813